M I D A S
Marine Information and Data Acquisition System
Tripno 1560 of the Zeeleeuw from 2008-09-05 06:16:24 to 2008-09-05 16:24:15
Back to CruiseResearch ActivitiesStationsMapUnderway DataData graphs

EquipmentUnitsComment
TimeDGPSUTC
LatitudeDGPSDM.mWGS84
LongitudeDGPSDM.mWGS84
TemperatureSBE03/SBE38deg celciusITS90
ConductivitySBE21S/mITS90
SalinitySBE21 Practical Salinity Units
ChlorophylAChelsea fluorimeterg/lCalibrated in Aceton
Missing or incorrect values are displayed as -999
Sea surface data collected by the RV Zeeleeuw from 2008-09-05 06:15:47 to 2008-09-05 16:25:32
Time Latitude Longitude Temperature Conductivity Salinity ChlorophylA
2008-09-05 06:16:52 51°13.632 2°55.996 20.4246 0.014217 0.07574 -1.209513
2008-09-05 06:17:52 51°13.659 2°55.898 20.4518 0.014217 0.075753 -1.209513
2008-09-05 06:18:52 51°13.685 2°55.799 20.4565 0.014217 0.075763 -1.209513
2008-09-05 06:19:52 51°13.69 2°55.726 20.4644 0.014217 0.075772 -1.209513
2008-09-05 06:20:52 51°13.697 2°55.72 20.4884 0.014217 0.075779 -1.209513
2008-09-05 06:21:52 51°13.749 2°55.709 20.5112 0.014217 0.075791 -1.209513
2008-09-05 06:22:52 51°13.857 2°55.617 20.4301 0.014217 0.075799 -1.209513
2008-09-05 06:23:52 51°13.986 2°55.525 20.3969 0.014217 0.07584 -1.209513
2008-09-05 06:24:52 51°14.117 2°55.421 20.4607 0.014217 0.075847 -1.209513
2008-09-05 06:25:52 51°14.238 2°55.282 20.4873 0.014217 0.075844 -1.209513
2008-09-05 06:26:52 51°14.34 2°55.098 20.4711 0.014217 0.075843 -1.209513
2008-09-05 06:27:52 51°14.43 2°54.887 20.404 0.014217 0.075851 -1.209513
2008-09-05 06:28:52 51°14.556 2°54.707 20.4027 0.014217 0.075866 -1.209513
2008-09-05 06:29:52 51°14.702 2°54.56 20.404 0.014217 0.075876 -1.209513
2008-09-05 06:30:52 51°14.852 2°54.419 20.4344 0.014114 0.075365 -1.209513
2008-09-05 06:31:52 51°15.011 2°54.273 17.8028 3.764746 26.359752 3.178318
2008-09-05 06:32:52 51°15.179 2°54.128 17.485 4.387252 33.410824 2.063949
2008-09-05 06:33:52 51°15.351 2°53.979 17.3945 4.429917 33.922189 1.924652
2008-09-05 06:34:52 51°15.526 2°53.823 17.3366 4.427219 33.97675 2.342541
2008-09-05 06:35:52 51°15.704 2°53.667 17.3293 4.429919 34.034235 2.830078
2008-09-05 06:36:52 51°15.881 2°53.505 17.343 4.439885 34.127367 3.491735
2008-09-05 06:37:52 51°16.059 2°53.345 17.3443 4.437082 34.100554 4.327512
2008-09-05 06:38:52 51°16.242 2°53.202 17.3457 4.442376 34.143397 4.884697
2008-09-05 06:39:52 51°16.426 2°53.059 17.3373 4.445283 34.175168 5.616002
2008-09-05 06:40:52 51°16.613 2°52.928 17.3166 4.449539 34.22196 5.964243
2008-09-05 06:41:52 51°16.798 2°52.787 17.3016 4.457741 34.310246 5.616002
2008-09-05 06:42:52 51°16.983 2°52.644 17.2755 4.455976 34.311356 4.989169
2008-09-05 06:43:52 51°17.167 2°52.499 17.2631 4.450267 34.27981 4.257864
2008-09-05 06:44:52 51°17.339 2°52.326 17.2767 4.452032 34.303875 3.561383
2008-09-05 06:45:52 51°17.488 2°52.098 17.3082 4.455457 34.309602 3.665855
2008-09-05 06:46:52 51°17.601 2°51.827 17.2991 4.45909 34.330038 3.422087
2008-09-05 06:47:52 51°17.709 2°51.549 17.2634 4.458156 34.338319 3.526559
2008-09-05 06:48:52 51°17.801 2°51.256 17.288 4.458053 34.353775 3.596207
2008-09-05 06:49:52 51°17.894 2°50.964 17.3178 4.463555 34.37397 3.213142
2008-09-05 06:50:52 51°17.999 2°50.681 17.3243 4.467395 34.39073 3.213142
2008-09-05 06:51:52 51°18.106 2°50.4 17.3121 4.467707 34.394096 3.631031
2008-09-05 06:52:52 51°18.207 2°50.113 17.3082 4.46698 34.398056 3.805151
2008-09-05 06:53:52 51°18.304 2°49.823 17.3114 4.467188 34.399846 3.805151
2008-09-05 06:54:52 51°18.382 2°49.518 17.3043 4.467603 34.402745 3.735503
2008-09-05 06:55:52 51°18.457 2°49.212 17.3005 4.466773 34.403084 3.735503
2008-09-05 06:56:52 51°18.529 2°48.904 17.3067 4.466981 34.405557 3.805151
2008-09-05 06:57:52 51°18.589 2°48.588 17.3135 4.468641 34.414424 3.805151
2008-09-05 06:58:52 51°18.644 2°48.27 17.3129 4.470614 34.425975 3.770327
2008-09-05 06:59:52 51°18.699 2°47.952 17.3044 4.469991 34.42538 3.700679
2008-09-05 07:00:52 51°18.762 2°47.638 17.3076 4.469057 34.421417 3.631031
2008-09-05 07:01:52 51°18.825 2°47.323 17.3228 4.471237 34.434076 3.317614
2008-09-05 07:02:52 51°18.889 2°47.01 17.3492 4.475805 34.457763 3.247966
2008-09-05 07:03:52 51°18.95 2°46.697 17.3706 4.476739 34.444666 3.352439
2008-09-05 07:04:52 51°19.005 2°46.38 17.3711 4.478607 34.447811 3.561383
2008-09-05 07:05:52 51°19.058 2°46.062 17.3679 4.479645 34.458117 3.805151
2008-09-05 07:06:52 51°19.111 2°45.746 17.3568 4.478296 34.451264 3.874799
2008-09-05 07:07:52 51°19.164 2°45.429 17.3548 4.481203 34.482449 4.118568
2008-09-05 07:08:52 51°19.22 2°45.11 17.3524 4.480061 34.476704 4.362336
2008-09-05 07:09:52 51°19.27 2°44.787 17.3549 4.479645 34.47176 4.501632
2008-09-05 07:10:52 51°19.307 2°44.461 17.3572 4.479749 34.469925 4.466808
2008-09-05 07:11:52 51°19.351 2°44.14 17.3687 4.480061 34.468515 4.466808
2008-09-05 07:12:52 51°19.395 2°43.821 17.391 4.481099 34.467227 4.39716
2008-09-05 07:13:52 51°19.44 2°43.502 17.4139 4.483798 34.469337 4.22304
2008-09-05 07:14:52 51°19.486 2°43.183 17.4198 4.486704 34.478004 3.944447
2008-09-05 07:15:52 51°19.537 2°42.866 17.4103 4.485874 34.474944 3.735503
2008-09-05 07:16:52 51°19.583 2°42.546 17.4306 4.48442 34.459031 3.735503
2008-09-05 07:17:52 51°19.631 2°42.228 17.438 4.485147 34.450989 3.839975
2008-09-05 07:18:52 51°19.677 2°41.908 17.418 4.485147 34.451669 4.04892
2008-09-05 07:19:52 51°19.72 2°41.588 17.397 4.479126 34.418234 3.665855
2008-09-05 07:20:52 51°19.767 2°41.268 17.3917 4.481825 34.453719 3.596207
2008-09-05 07:21:52 51°19.817 2°40.947 17.3867 4.48141 34.454913 3.491735
2008-09-05 07:22:52 51°19.865 2°40.625 17.3965 4.481202 34.45585 3.422087
2008-09-05 07:23:52 51°19.909 2°40.302 17.4125 4.482552 34.455206 3.526559
2008-09-05 07:24:52 51°19.955 2°39.982 17.429 4.483382 34.449416 3.143494
2008-09-05 07:25:52 51°20.003 2°39.661 17.4414 4.485354 34.452775 3.178318
2008-09-05 07:26:52 51°20.051 2°39.34 17.4362 4.485043 34.445333 2.690782
2008-09-05 07:27:52 51°20.097 2°39.018 17.4204 4.484835 34.450351 2.447013
2008-09-05 07:28:52 51°20.143 2°38.694 17.4044 4.483901 34.457287 2.342541
2008-09-05 07:29:52 51°20.187 2°38.369 17.3969 4.483278 34.462143 2.307717
2008-09-05 07:30:52 51°20.229 2°38.045 17.388 4.483798 34.474108 2.168421
2008-09-05 07:31:52 51°20.275 2°37.721 17.3952 4.482552 34.464064 2.063949
2008-09-05 07:32:52 51°20.322 2°37.397 17.3987 4.483175 34.465338 2.063949
2008-09-05 07:33:52 51°20.367 2°37.073 17.3944 4.48359 34.46755 2.098773
2008-09-05 07:34:52 51°20.423 2°36.752 17.3973 4.48577 34.489047 2.063949
2008-09-05 07:35:52 51°20.482 2°36.433 17.3964 4.486808 34.496622 1.959476
2008-09-05 07:36:52 51°20.542 2°36.115 17.3949 4.486912 34.496834 1.9943
2008-09-05 07:37:52 51°20.599 2°35.792 17.3988 4.487327 34.499727 1.924652
2008-09-05 07:38:52 51°20.656 2°35.471 17.3989 4.487639 34.502409 1.959476
2008-09-05 07:39:52 51°20.71 2°35.149 17.3965 4.487847 34.504197 1.9943
2008-09-05 07:40:52 51°20.768 2°34.828 17.3962 4.487847 34.505561 1.924652
2008-09-05 07:41:52 51°20.828 2°34.508 17.3891 4.48795 34.508502 1.855004
2008-09-05 07:42:52 51°20.886 2°34.191 17.3945 4.488054 34.514857 1.785356
2008-09-05 07:43:52 51°20.944 2°33.872 17.4091 4.489092 34.515607 1.715708
2008-09-05 07:44:51 51°21.002 2°33.559 17.4207 4.490961 34.517367 1.715708
2008-09-05 07:45:49 51°21.059 2°33.252 17.4208 4.493556 34.532203 1.576412
2008-09-05 07:46:48 51°21.119 2°32.944 97.6131 4.49636 34.560428 1.332643
2008-09-05 07:47:49 51°21.259 2°32.703 7 4.498125 34.579722 1.193347
2008-09-05 07:48:48 51°21.451 2°32.617 17.4109 4.49854 34.581931 1.228171
2008-09-05 07:49:49 51°21.659 2°32.569 17.4135 4.498436 34.583088 1.228171
2008-09-05 07:50:48 51°21.857 2°32.502 17.4178 4.498955 34.58414 1.193347
2008-09-05 07:51:48 51°22.058 2°32.424 17.4228 4.499889 34.588084 1.193347
2008-09-05 07:52:48 51°22.259 2°32.354 17.4218 4.500928 34.594972 1.123699
2008-09-05 07:53:49 51°22.463 2°32.273 17.424 4.501862 34.602332 1.054051
2008-09-05 07:54:48 51°22.659 2°32.207 17.4253 4.5029 34.609219 0.914755
2008-09-05 07:55:48 51°22.86 2°32.15 17.4312 4.503523 34.612531 0.879931
2008-09-05 07:56:48 51°23.057 2°32.075 17.43 4.504354 34.616946 0.775459
2008-09-05 07:57:48 51°23.254 2°31.998 17.4228 4.504769 34.621889 0.670986
2008-09-05 07:58:48 51°23.453 2°31.928 17.4229 4.505081 34.63278 0.496866
2008-09-05 07:59:48 51°23.655 2°31.856 17.4218 4.5056 34.635197 0.462042
2008-09-05 08:00:49 51°23.86 2°31.782 17.4236 4.506223 34.641245 0.427218
2008-09-05 08:01:48 51°24.056 2°31.714 17.4273 4.506846 34.643871 0.35757
2008-09-05 08:02:48 51°24.255 2°31.651 17.4359 4.507261 34.644025 0.427218
2008-09-05 08:03:48 51°24.459 2°31.612 17.4487 4.50778 34.639598 0.53169
2008-09-05 08:04:48 51°24.613 2°31.612 17.4573 4.508818 34.635539 0.566514
2008-09-05 08:05:49 51°24.717 2°31.614 17.4649 4.509025 34.631857 0.496866
2008-09-05 08:06:48 51°24.806 2°31.625 17.4653 4.509129 34.630016 0.427218
2008-09-05 08:07:48 51°24.889 2°31.654 17.468 4.509129 34.627966 0.35757
2008-09-05 08:08:48 51°24.953 2°31.68 17.472 4.509233 34.625443 0.322746
2008-09-05 08:09:48 51°24.99 2°31.702 17.4727 4.50944 34.623813 0.253098
2008-09-05 08:10:48 51°25.013 2°31.716 17.4765 4.50944 34.622447 0.18345
2008-09-05 08:11:48 51°25.028 2°31.724 17.4779 4.509544 34.622657 0.148626
2008-09-05 08:12:49 51°25.041 2°31.724 17.4785 4.50944 34.621081 0.044153
2008-09-05 08:13:49 51°25.053 2°31.717 17.4787 4.509544 34.620608 0.009329
2008-09-05 08:14:48 51°25.066 2°31.707 17.4781 4.509648 34.621501 0.044153
2008-09-05 08:15:48 51°25.08 2°31.698 17.4807 4.509856 34.621238 -0.025495
2008-09-05 08:16:48 51°25.093 2°31.689 17.4797 4.509752 34.620345 -0.095143
2008-09-05 08:17:48 51°25.107 2°31.677 17.482 4.509856 34.621921 -0.095143
2008-09-05 08:18:48 51°25.122 2°31.662 17.4814 4.509959 34.621448 -0.095143
2008-09-05 08:19:49 51°25.137 2°31.646 17.4811 4.509856 34.620555 -0.164791
2008-09-05 08:20:48 51°25.15 2°31.63 17.4811 4.509648 34.620135 -0.129967
2008-09-05 08:21:48 51°25.166 2°31.637 17.4831 4.509544 34.617877 -0.164791
2008-09-05 08:22:48 51°25.163 2°31.676 17.4797 4.509752 34.619662 -0.095143
2008-09-05 08:23:48 51°25.123 2°31.689 17.4752 4.50944 34.620398 0.009329
2008-09-05 08:24:48 51°25.06 2°31.683 17.4772 4.509129 34.620451 0.044153
2008-09-05 08:25:48 51°24.988 2°31.697 17.478 4.509337 34.620188 0.044153
2008-09-05 08:26:48 51°24.93 2°31.697 17.4751 4.509544 34.621974 0.113802
2008-09-05 08:27:48 51°24.901 2°31.701 17.4753 4.509544 34.624023 0.113802
2008-09-05 08:28:49 51°24.898 2°31.704 17.4778 4.509856 34.624653 0.078977
2008-09-05 08:29:48 51°24.911 2°31.698 17.4817 4.510063 34.625072 0.009329
2008-09-05 08:30:49 51°24.925 2°31.687 17.476 4.50996 34.626229 0.009329
2008-09-05 08:31:49 51°24.939 2°31.671 17.4726 4.509856 34.626702 0.009329
2008-09-05 08:32:49 51°24.952 2°31.652 17.4729 4.509752 34.626492 0.009329
2008-09-05 08:33:48 51°24.965 2°31.631 17.4723 4.509752 34.626492 -0.025495
2008-09-05 08:34:48 51°24.977 2°31.61 17.4742 4.509752 34.627175 -0.060319
2008-09-05 08:35:48 51°24.989 2°31.589 17.4729 4.50996 34.627595 -0.060319
2008-09-05 08:36:49 51°25.001 2°31.566 17.4751 4.510063 34.627805 -0.060319
2008-09-05 08:37:49 51°25.013 2°31.543 17.4749 4.510063 34.627805 -0.095143
2008-09-05 08:38:49 51°25.024 2°31.523 17.4739 4.50996 34.627595 -0.129967
2008-09-05 08:39:49 51°25.036 2°31.504 17.4752 4.50996 34.626912 -0.129967
2008-09-05 08:40:49 51°25.048 2°31.484 17.4746 4.509856 34.626702 -0.129967
2008-09-05 08:41:48 51°25.058 2°31.463 17.4776 4.50996 34.626912 -0.095143
2008-09-05 08:42:48 51°25.061 2°31.498 17.4809 4.510375 34.627751 -0.129967
2008-09-05 08:43:49 51°25.034 2°31.555 17.4756 4.510271 34.626858 0.009329
2008-09-05 08:44:49 51°25.001 2°31.596 17.4776 4.509856 34.626019 0.078977
2008-09-05 08:45:49 51°24.976 2°31.627 17.4799 4.510063 34.627122 0.044153
2008-09-05 08:46:49 51°24.978 2°31.657 17.477 4.510167 34.626648 0.009329
2008-09-05 08:47:49 51°24.987 2°31.654 17.4801 4.510271 34.628224 0.044153
2008-09-05 08:48:49 51°24.995 2°31.623 17.4771 4.510271 34.628224 0.078977
2008-09-05 08:49:49 51°25.002 2°31.595 17.4769 4.510167 34.628014 0.044153
2008-09-05 08:50:49 51°25.01 2°31.569 17.4766 4.510063 34.627805 0.078977
2008-09-05 08:51:49 51°25.019 2°31.544 17.477 4.510167 34.628014 0.044153
2008-09-05 08:52:49 51°25.027 2°31.523 17.4772 4.510375 34.627068 -0.025495
2008-09-05 08:53:49 51°25.035 2°31.498 17.4778 4.510375 34.627068 -0.060319
2008-09-05 08:54:49 51°25.041 2°31.481 17.4775 4.510375 34.627751 -0.060319
2008-09-05 08:55:49 51°25.045 2°31.483 17.479 4.510375 34.627068 -0.060319
2008-09-05 08:56:49 51°25.045 2°31.49 17.4825 4.510479 34.626595 -0.060319
2008-09-05 08:57:49 51°25.047 2°31.487 17.4802 4.510686 34.625648 -0.025495
2008-09-05 08:58:49 51°25.047 2°31.485 17.4805 4.510271 34.625492 0.009329
2008-09-05 08:59:49 51°25.047 2°31.486 17.4806 4.510271 34.624809 -0.060319
2008-09-05 09:00:49 51°25.045 2°31.487 17.4824 4.510375 34.624336 -0.060319
2008-09-05 09:01:49 51°25.045 2°31.484 17.4816 4.510375 34.623653 -0.095143
2008-09-05 09:02:49 51°25.045 2°31.484 17.4832 4.510271 34.624126 -0.095143
2008-09-05 09:03:49 51°25.045 2°31.486 17.4803 4.506429 34.590413 -0.129967
2008-09-05 09:04:49 51°25.045 2°31.485 17.4812 4.510271 34.623443 -0.095143
2008-09-05 09:05:49 51°25.044 2°31.483 17.4813 4.510063 34.623706 -0.095143
2008-09-05 09:06:49 51°25.041 2°31.484 17.4808 4.510271 34.623443 -0.095143
2008-09-05 09:07:48 51°25.041 2°31.481 17.4847 4.510167 34.623233 -0.095143
2008-09-05 09:08:49 51°25.039 2°31.482 17.4827 4.510271 34.623443 -0.095143
2008-09-05 09:09:49 51°25.036 2°31.482 17.4854 4.510271 34.62276 -0.129967
2008-09-05 09:10:49 51°25.035 2°31.479 17.4832 4.510479 34.622497 -0.095143
2008-09-05 09:11:49 51°25.034 2°31.478 17.485 4.510271 34.622077 -0.095143
2008-09-05 09:12:49 51°25.032 2°31.478 17.4848 4.510271 34.621395 -0.129967
2008-09-05 09:13:49 51°25.03 2°31.479 17.4875 4.510478 34.621132 -0.095143
2008-09-05 09:14:48 51°25.031 2°31.476 17.4896 4.510582 34.621342 -0.095143
2008-09-05 09:15:49 51°25.03 2°31.477 17.4876 4.510478 34.620449 -0.095143
2008-09-05 09:16:48 51°25.028 2°31.478 17.4884 4.510478 34.620449 -0.129967
2008-09-05 09:17:49 51°25.029 2°31.476 17.4866 4.510478 34.620449 -0.129967
2008-09-05 09:18:49 51°25.028 2°31.477 17.4877 4.510375 34.620239 -0.095143
2008-09-05 09:19:49 51°25.026 2°31.479 17.49 4.510582 34.620659 -0.095143
2008-09-05 09:20:49 51°25.025 2°31.477 17.4876 4.510582 34.619976 -0.095143
2008-09-05 09:21:49 51°25.025 2°31.478 17.489 4.510478 34.620449 -0.129967
2008-09-05 09:22:49 51°25.023 2°31.478 17.4887 4.510582 34.619976 -0.129967
2008-09-05 09:23:49 51°25.021 2°31.479 17.4906 4.510582 34.619976 -0.129967
2008-09-05 09:24:49 51°25.019 2°31.479 17.4886 4.510478 34.618401 -0.129967
2008-09-05 09:25:49 51°25.018 2°31.479 17.4887 4.509648 34.611943 -0.129967
2008-09-05 09:26:49 51°25.017 2°31.479 17.4919 4.509233 34.607007 -0.129967
2008-09-05 09:27:49 51°25.017 2°31.478 17.4919 4.51079 34.619713 -0.129967
2008-09-05 09:28:49 51°25.017 2°31.478 17.4916 4.510894 34.619241 -0.129967
2008-09-05 09:29:49 51°25.019 2°31.475 17.4933 4.510998 34.619451 -0.095143
2008-09-05 09:30:49 51°25.016 2°31.478 17.4935 4.510894 34.619923 -0.129967
2008-09-05 09:31:49 51°25.016 2°31.478 17.4933 4.510998 34.619451 -0.095143
2008-09-05 09:32:49 51°25.016 2°31.477 17.4949 4.510998 34.619451 -0.129967
2008-09-05 09:33:49 51°25.017 2°31.478 17.4978 4.510998 34.619451 -0.095143
2008-09-05 09:34:49 51°25.017 2°31.479 17.4933 4.511101 34.619661 -0.095143
2008-09-05 09:35:49 51°25.015 2°31.478 17.4951 4.511309 34.621446 -0.095143
2008-09-05 09:36:49 51°25.015 2°31.477 17.4923 4.511309 34.620763 -0.095143
2008-09-05 09:37:49 51°25.015 2°31.478 17.4907 4.511205 34.621236 -0.095143
2008-09-05 09:38:49 51°25.015 2°31.478 17.4924 4.511101 34.621026 -0.095143
2008-09-05 09:39:49 51°25.015 2°31.477 17.4918 4.511309 34.621446 -0.095143
2008-09-05 09:40:49 51°25.013 2°31.479 17.4911 4.511101 34.621026 -0.095143
2008-09-05 09:41:49 51°25.013 2°31.478 17.4943 4.511101 34.621026 -0.095143
2008-09-05 09:42:49 51°25.013 2°31.478 17.4922 4.511309 34.621446 -0.095143
2008-09-05 09:43:49 51°25.013 2°31.478 17.4963 4.511309 34.621446 -0.095143
2008-09-05 09:44:49 51°25.013 2°31.478 17.4993 4.511724 34.62092 -0.095143
2008-09-05 09:45:49 51°25.011 2°31.48 17.495 4.511517 34.621183 -0.095143
2008-09-05 09:46:49 51°25.009 2°31.482 17.4939 4.511309 34.620763 -0.095143
2008-09-05 09:47:49 51°25.008 2°31.481 17.4968 4.511205 34.620553 -0.129967
2008-09-05 09:48:49 51°25.009 2°31.479 17.4955 4.511309 34.621446 -0.095143
2008-09-05 09:49:49 51°25.009 2°31.48 17.4973 4.511413 34.620973 -0.095143
2008-09-05 09:50:49 51°25.009 2°31.481 17.4961 4.511309 34.62008 -0.095143
2008-09-05 09:51:48 51°25.008 2°31.481 17.4958 4.511413 34.62029 -0.129967
2008-09-05 09:52:48 51°25.007 2°31.482 17.4957 4.511413 34.62029 -0.129967
2008-09-05 09:53:48 51°25.006 2°31.483 17.4986 4.511517 34.6205 -0.095143
2008-09-05 09:54:48 51°25.005 2°31.484 17.4972 4.51162 34.62071 -0.060319
2008-09-05 09:55:48 51°25.003 2°31.488 17.4969 4.51162 34.620028 -0.095143
2008-09-05 09:56:49 51°25.003 2°31.503 17.4968 4.511413 34.619608 -0.060319
2008-09-05 09:57:49 51°25.004 2°31.518 17.4984 4.511517 34.619818 -0.060319
2008-09-05 09:58:48 51°25.003 2°31.538 17.4998 4.511517 34.6205 -0.060319
2008-09-05 09:59:49 51°25.002 2°31.545 17.5018 4.511724 34.620238 -0.025495
2008-09-05 10:00:48 51°25 2°31.538 17.498 4.511724 34.620238 -0.025495
2008-09-05 10:01:49 51°25.004 2°31.554 17.4967 4.511413 34.620973 -0.060319
2008-09-05 10:02:48 51°25.009 2°31.562 17.4954 4.51162 34.621393 -0.060319
2008-09-05 10:03:48 51°25.009 2°31.552 17.4984 4.511517 34.621183 -0.025495
2008-09-05 10:04:48 51°25.007 2°31.533 17.4995 4.51162 34.62071 -0.025495
2008-09-05 10:05:48 51°25.005 2°31.512 17.4999 4.51162 34.62071 -0.060319
2008-09-05 10:06:49 51°25.005 2°31.495 17.4996 4.51162 34.62071 -0.060319
2008-09-05 10:07:49 51°25.053 2°31.48 17.4996 4.51162 34.621393 -0.025495
2008-09-05 10:08:49 51°25.039 2°31.333 17.4978 4.511413 34.621656 0.148626
2008-09-05 10:09:48 51°24.954 2°31.284 17.4957 4.511309 34.621446 0.078977
2008-09-05 10:10:48 51°24.923 2°31.335 17.4966 4.511309 34.620763 0.113802
2008-09-05 10:11:49 51°24.929 2°31.417 17.4955 4.511413 34.620973 0.113802
2008-09-05 10:12:49 51°24.915 2°31.509 17.4976 4.51079 34.612888 0.113802
2008-09-05 10:13:49 51°24.911 2°31.609 17.4986 4.51162 34.621393 0.113802
2008-09-05 10:14:48 51°24.902 2°31.69 17.4978 4.512139 34.620395 0.18345
2008-09-05 10:15:49 51°24.909 2°31.734 17.4961 4.51162 34.621393 0.18345
2008-09-05 10:16:48 51°24.915 2°31.771 17.4984 4.509544 34.604226 0.148626
2008-09-05 10:17:49 51°24.915 2°31.779 17.4974 4.510997 34.616721 0.113802
2008-09-05 10:18:48 51°24.912 2°31.75 17.4987 4.509648 34.605119 0.253098
2008-09-05 10:19:49 51°24.911 2°31.722 17.4966 4.511828 34.623178 0.218274
2008-09-05 10:20:49 51°24.91 2°31.701 17.5004 4.51079 34.614936 0.044153
2008-09-05 10:21:48 51°24.908 2°31.708 17.498 4.512036 34.623598 0.009329
2008-09-05 10:22:49 51°24.905 2°31.709 17.4993 4.509959 34.606432 0.044153
2008-09-05 10:23:48 51°24.901 2°31.709 17.5003 4.512036 34.623598 0.009329
2008-09-05 10:24:49 51°24.899 2°31.712 17.4989 4.512139 34.623807 -0.025495
2008-09-05 10:25:48 51°24.896 2°31.713 17.4987 4.512243 34.624017 -0.060319
2008-09-05 10:26:49 51°24.894 2°31.715 17.4997 4.51214 34.62449 -0.060319
2008-09-05 10:27:48 51°24.892 2°31.718 17.5008 4.512347 34.62491 -0.060319
2008-09-05 10:28:48 51°24.892 2°31.717 17.5005 4.512347 34.624227 -0.060319
2008-09-05 10:29:48 51°24.891 2°31.716 17.5069 4.512451 34.62512 -0.095143
2008-09-05 10:30:48 51°24.89 2°31.718 17.5003 4.512451 34.624437 -0.025495
2008-09-05 10:31:48 51°24.888 2°31.722 17.4976 4.512347 34.62491 -0.060319
2008-09-05 10:32:48 51°24.886 2°31.725 17.4985 4.512347 34.626275 -0.095143
2008-09-05 10:33:49 51°24.884 2°31.727 17.4975 4.512451 34.627167 -0.060319
2008-09-05 10:34:49 51°24.884 2°31.726 17.4975 4.512347 34.62764 -0.060319
2008-09-05 10:35:49 51°24.885 2°31.725 17.4974 4.512451 34.627167 -0.095143
2008-09-05 10:36:49 51°24.886 2°31.725 17.4975 4.512555 34.627377 -0.060319
2008-09-05 10:37:49 51°24.887 2°31.722 17.4998 4.512451 34.62785 -0.025495
2008-09-05 10:38:49 51°24.887 2°31.721 17.5 4.512555 34.62806 -0.060319
2008-09-05 10:39:49 51°24.889 2°31.72 17.5013 4.512762 34.629162 -0.095143
2008-09-05 10:40:49 51°24.891 2°31.717 17.5038 4.512659 34.626904 -0.060319
2008-09-05 10:41:48 51°24.891 2°31.716 17.4956 4.512762 34.629162 -0.060319
2008-09-05 10:42:49 51°24.891 2°31.717 17.494 4.512555 34.629425 -0.060319
2008-09-05 10:43:48 51°24.892 2°31.715 17.4972 4.512555 34.630108 -0.060319
2008-09-05 10:44:49 51°24.892 2°31.715 17.4944 4.512659 34.630318 -0.060319
2008-09-05 10:45:49 51°24.893 2°31.715 17.4945 4.512659 34.631 -0.095143
2008-09-05 10:46:48 51°24.893 2°31.715 17.4979 4.512555 34.632156 -0.060319
2008-09-05 10:47:49 51°24.892 2°31.715 17.4915 4.512763 34.632576 -0.060319
2008-09-05 10:48:49 51°24.89 2°31.719 17.4916 4.512451 34.633995 -0.060319
2008-09-05 10:49:49 51°24.889 2°31.72 17.4904 4.512451 34.633312 -0.060319
2008-09-05 10:50:49 51°24.89 2°31.719 17.4905 4.512451 34.633995 -0.060319
2008-09-05 10:51:49 51°24.893 2°31.715 17.4889 4.512451 34.635361 -0.060319
2008-09-05 10:52:49 51°24.895 2°31.712 17.4899 4.512555 34.634888 -0.129967
2008-09-05 10:53:49 51°24.896 2°31.713 17.488 4.512451 34.635361 -0.095143
2008-09-05 10:54:49 51°24.897 2°31.713 17.4885 4.512347 34.635151 -0.060319
2008-09-05 10:55:49 51°24.898 2°31.711 17.4901 4.512451 34.635361 -0.095143
2008-09-05 10:56:49 51°24.896 2°31.712 17.4891 4.512555 34.635571 -0.095143
2008-09-05 10:57:49 51°24.894 2°31.714 17.4898 4.392652 33.607712 -0.060319
2008-09-05 10:58:49 51°24.892 2°31.715 17.493 4.512763 34.636673 -0.095143
2008-09-05 10:59:48 51°24.891 2°31.716 17.4894 4.512555 34.63762 -0.095143
2008-09-05 11:00:49 51°24.891 2°31.717 17.4879 4.512659 34.637829 -0.095143
2008-09-05 11:01:49 51°24.889 2°31.719 17.4893 4.512659 34.637146 -0.095143
2008-09-05 11:02:49 51°24.89 2°31.719 17.4852 4.512866 34.637566 -0.095143
2008-09-05 11:03:49 51°24.891 2°31.718 17.4827 4.512659 34.638513 -0.129967
2008-09-05 11:04:49 51°24.891 2°31.716 17.4811 4.512451 34.638776 -0.095143
2008-09-05 11:05:49 51°24.892 2°31.716 17.482 4.512347 34.63925 -0.095143
2008-09-05 11:06:49 51°24.891 2°31.717 17.4814 4.512347 34.639933 -0.095143
2008-09-05 11:07:49 51°24.89 2°31.719 17.4803 4.512347 34.640616 -0.095143
2008-09-05 11:08:49 51°24.888 2°31.721 17.4774 4.512451 34.641509 -0.095143
2008-09-05 11:09:48 51°24.889 2°31.722 17.4789 4.512347 34.641983 -0.129967
2008-09-05 11:10:49 51°24.889 2°31.722 17.4795 4.512347 34.641983 -0.095143
2008-09-05 11:11:49 51°24.89 2°31.719 17.4813 4.512451 34.642192 -0.129967
2008-09-05 11:12:49 51°24.892 2°31.718 17.479 4.512451 34.643559 -0.129967
2008-09-05 11:13:48 51°24.892 2°31.719 17.4759 4.512244 34.643823 -0.095143
2008-09-05 11:14:49 51°24.891 2°31.719 17.4775 4.512659 34.643978 -0.095143
2008-09-05 11:15:49 51°24.891 2°31.718 17.4735 4.512347 34.644033 -0.095143
2008-09-05 11:16:49 51°24.892 2°31.717 17.4782 4.512244 34.64519 -0.129967
2008-09-05 11:17:49 51°24.892 2°31.717 17.4765 4.512451 34.644926 -0.129967
2008-09-05 11:18:49 51°24.893 2°31.715 17.4793 4.512451 34.644926 -0.095143
2008-09-05 11:19:49 51°24.895 2°31.713 17.477 4.512659 34.646028 -0.095143
2008-09-05 11:20:49 51°24.895 2°31.712 17.4745 4.512451 34.645609 -0.095143
2008-09-05 11:21:49 51°24.896 2°31.712 17.4794 4.512348 34.646767 -0.129967
2008-09-05 11:22:48 51°24.895 2°31.713 17.4752 4.512451 34.646976 -0.129967
2008-09-05 11:23:49 51°24.895 2°31.713 17.4748 4.512348 34.64745 -0.129967
2008-09-05 11:24:49 51°24.894 2°31.712 17.4721 4.51214 34.647031 -0.199615
2008-09-05 11:25:49 51°24.894 2°31.714 17.4745 4.512348 34.64745 -0.129967
2008-09-05 11:26:49 51°24.894 2°31.715 17.4759 4.512244 34.647924 -0.164791
2008-09-05 11:27:49 51°24.893 2°31.716 17.4752 4.512451 34.648343 -0.129967
2008-09-05 11:28:49 51°24.893 2°31.716 17.4771 4.512348 34.648134 -0.129967
2008-09-05 11:29:49 51°24.894 2°31.715 17.4751 4.512451 34.648343 -0.129967
2008-09-05 11:30:49 51°24.895 2°31.716 17.4734 4.512555 34.649236 -0.129967
2008-09-05 11:31:48 51°24.895 2°31.715 17.4698 4.512348 34.648817 -0.164791
2008-09-05 11:32:49 51°24.896 2°31.714 17.4702 4.512244 34.649291 -0.129967
2008-09-05 11:33:49 51°24.895 2°31.715 17.4748 4.512348 34.648817 -0.129967
2008-09-05 11:34:49 51°24.894 2°31.716 17.4722 4.512555 34.64992 -0.164791
2008-09-05 11:35:49 51°24.894 2°31.716 17.4722 4.512555 34.651287 -0.199615
2008-09-05 11:36:49 51°24.894 2°31.715 17.4707 4.512555 34.650603 -0.164791
2008-09-05 11:37:49 51°24.894 2°31.715 17.469 4.512451 34.651761 -0.129967
2008-09-05 11:38:49 51°24.896 2°31.712 17.4711 4.512555 34.651287 -0.129967
2008-09-05 11:39:49 51°24.9 2°31.71 17.4715 4.512555 34.651287 -0.164791
2008-09-05 11:40:49 51°24.903 2°31.709 17.4686 4.512555 34.651971 -0.164791
2008-09-05 11:41:49 51°24.905 2°31.71 17.4696 4.512348 34.652236 -0.164791
2008-09-05 11:42:49 51°24.907 2°31.709 17.4695 4.512348 34.651552 -0.129967
2008-09-05 11:43:49 51°24.907 2°31.709 17.4692 4.512348 34.651552 -0.129967
2008-09-05 11:44:49 51°24.908 2°31.709 17.4673 4.512451 34.651761 -0.129967
2008-09-05 11:45:49 51°24.911 2°31.707 17.4651 4.512244 34.65271 -0.164791
2008-09-05 11:46:49 51°24.912 2°31.707 17.4643 4.51214 34.652501 -0.164791
2008-09-05 11:47:49 51°24.913 2°31.708 17.4645 4.512036 34.652975 -0.129967
2008-09-05 11:48:49 51°24.912 2°31.709 17.463 4.51214 34.653868 -0.164791
2008-09-05 11:49:49 51°24.911 2°31.708 17.464 4.51214 34.652501 -0.129967
2008-09-05 11:50:49 51°24.912 2°31.707 17.4666 4.51214 34.653184 -0.164791
2008-09-05 11:51:49 51°24.912 2°31.708 17.4629 4.512348 34.653603 -0.164791
2008-09-05 11:52:48 51°24.914 2°31.709 17.4619 4.512348 34.654287 -0.164791
2008-09-05 11:53:49 51°24.914 2°31.708 17.4612 4.512036 34.653659 -0.164791
2008-09-05 11:54:49 51°24.914 2°31.707 17.464 4.512036 34.654343 -0.164791
2008-09-05 11:55:49 51°24.912 2°31.708 17.4588 4.512036 34.655027 -0.164791
2008-09-05 11:56:49 51°24.911 2°31.708 17.4626 4.511829 34.654608 -0.164791
2008-09-05 11:57:48 51°24.912 2°31.707 17.4588 4.511932 34.655501 -0.164791
2008-09-05 11:58:49 51°24.912 2°31.708 17.4599 4.511829 34.655976 -0.164791
2008-09-05 11:59:49 51°24.91 2°31.709 17.4567 4.511932 34.656185 -0.199615
2008-09-05 12:00:48 51°24.909 2°31.71 17.4585 4.511829 34.65666 -0.164791
2008-09-05 12:01:49 51°24.908 2°31.71 17.4576 4.511829 34.65666 -0.199615
2008-09-05 12:02:49 51°24.907 2°31.709 17.4552 4.511932 34.656185 -0.199615
2008-09-05 12:03:48 51°24.907 2°31.708 17.4579 4.512036 34.656395 -0.199615
2008-09-05 12:04:49 51°24.907 2°31.709 17.4554 4.511725 34.657135 -0.164791
2008-09-05 12:05:49 51°24.908 2°31.71 17.4581 4.511829 34.658712 -0.199615
2008-09-05 12:06:48 51°24.91 2°31.708 17.4566 4.511829 34.658712 -0.164791
2008-09-05 12:07:49 51°24.91 2°31.708 17.4546 4.511829 34.659396 -0.164791
2008-09-05 12:08:49 51°24.909 2°31.709 17.4538 4.511517 34.659453 -0.129967
2008-09-05 12:09:48 51°24.908 2°31.709 17.4534 4.511621 34.659662 -0.234439
2008-09-05 12:10:49 51°24.908 2°31.708 17.4538 4.511621 34.660346 -0.199615
2008-09-05 12:11:49 51°24.909 2°31.708 17.4527 4.511725 34.659871 -0.234439
2008-09-05 12:12:48 51°24.911 2°31.709 17.4507 4.511621 34.659662 -0.234439
2008-09-05 12:13:49 51°24.913 2°31.708 17.4502 4.511621 34.66103 -0.199615
2008-09-05 12:14:49 51°24.915 2°31.708 17.4507 4.511621 34.660346 -0.199615
2008-09-05 12:15:48 51°24.915 2°31.709 17.4525 4.511517 34.660821 -0.234439
2008-09-05 12:16:49 51°24.915 2°31.709 17.4491 4.511621 34.660346 -0.164791
2008-09-05 12:17:49 51°24.914 2°31.708 17.4535 4.511517 34.659453 -0.199615
2008-09-05 12:18:49 51°24.913 2°31.709 17.4487 4.51131 34.660403 -0.199615
2008-09-05 12:19:49 51°24.914 2°31.71 17.4491 4.51131 34.659718 -0.199615
2008-09-05 12:20:49 51°24.915 2°31.708 17.4509 4.51131 34.659718 -0.199615
2008-09-05 12:21:49 51°24.916 2°31.711 17.4494 4.51131 34.660403 -0.234439
2008-09-05 12:22:49 51°24.915 2°31.711 17.4515 4.511413 34.660612 -0.234439
2008-09-05 12:23:49 51°24.915 2°31.711 17.4525 4.511829 34.659396 -0.234439
2008-09-05 12:24:49 51°24.915 2°31.709 17.4511 4.511517 34.659453 -0.234439
2008-09-05 12:25:49 51°24.917 2°31.707 17.4547 4.511413 34.659928 -0.199615
2008-09-05 12:26:49 51°24.919 2°31.712 17.4509 4.511413 34.659243 -0.199615
2008-09-05 12:27:49 51°24.919 2°31.713 17.4511 4.511517 34.6574 -0.199615
2008-09-05 12:28:49 51°24.918 2°31.709 17.4538 4.511725 34.659187 -0.199615
2008-09-05 12:29:48 51°24.919 2°31.707 17.4525 4.511413 34.657875 -0.199615
2008-09-05 12:30:49 51°24.919 2°31.712 17.4517 4.511206 34.660193 -0.199615
2008-09-05 12:31:49 51°24.918 2°31.712 17.4502 4.511413 34.660612 -0.234439
2008-09-05 12:32:48 51°24.918 2°31.709 17.4473 4.511206 34.660193 -0.269263
2008-09-05 12:33:49 51°24.919 2°31.708 17.4469 4.511206 34.660878 -0.269263
2008-09-05 12:34:49 51°24.92 2°31.71 17.4475 4.511206 34.661562 -0.234439
2008-09-05 12:35:49 51°24.921 2°31.712 17.4471 4.511206 34.661562 -0.234439
2008-09-05 12:36:49 51°24.922 2°31.709 17.4457 4.511206 34.661562 -0.199615
2008-09-05 12:37:49 51°24.922 2°31.71 17.4481 4.511102 34.660668 -0.234439
2008-09-05 12:38:49 51°24.921 2°31.712 17.4467 4.510998 34.659775 -0.234439
2008-09-05 12:39:49 51°24.923 2°31.71 17.4466 4.510998 34.659775 -0.199615
2008-09-05 12:40:49 51°24.923 2°31.711 17.447 4.511206 34.660878 -0.234439
2008-09-05 12:41:49 51°24.924 2°31.711 17.4459 4.511206 34.661562 -0.234439
2008-09-05 12:42:49 51°24.925 2°31.713 17.4449 4.511206 34.662246 -0.199615
2008-09-05 12:43:49 51°24.926 2°31.713 17.4433 4.511102 34.662722 -0.199615
2008-09-05 12:44:49 51°24.927 2°31.712 17.4452 4.510998 34.662512 -0.234439
2008-09-05 12:45:49 51°24.926 2°31.713 17.4449 4.511206 34.662931 -0.234439
2008-09-05 12:46:48 51°24.927 2°31.714 17.4463 4.51131 34.662456 -0.234439
2008-09-05 12:47:49 51°24.928 2°31.712 17.4488 4.51131 34.661771 -0.304087
2008-09-05 12:48:49 51°24.93 2°31.714 17.4455 4.51131 34.663825 -0.269263
2008-09-05 12:49:49 51°24.93 2°31.715 17.444 4.511102 34.662722 -0.269263
2008-09-05 12:50:49 51°24.932 2°31.714 17.4445 4.511206 34.663615 -0.234439
2008-09-05 12:51:49 51°24.934 2°31.716 17.4445 4.511206 34.663615 -0.304087
2008-09-05 12:52:49 51°24.935 2°31.72 17.4427 4.511206 34.6643 -0.269263
2008-09-05 12:53:49 51°24.939 2°31.719 17.4422 4.511102 34.664091 -0.269263
2008-09-05 12:54:49 51°24.94 2°31.718 17.4423 4.510998 34.663197 -0.269263
2008-09-05 12:55:49 51°24.939 2°31.723 17.4421 4.510894 34.663672 -0.269263
2008-09-05 12:56:48 51°24.941 2°31.721 17.4442 4.510998 34.663197 -0.304087
2008-09-05 12:57:49 51°24.942 2°31.72 17.4449 4.510894 34.662988 -0.304087
2008-09-05 12:58:49 51°24.942 2°31.723 17.4442 4.510894 34.662988 -0.304087
2008-09-05 12:59:49 51°24.942 2°31.722 17.4404 4.510687 34.662569 -0.304087
2008-09-05 13:00:49 51°24.941 2°31.719 17.4404 4.510479 34.662835 -0.304087
2008-09-05 13:01:49 51°24.941 2°31.722 17.441 4.510687 34.662569 -0.304087
2008-09-05 13:02:49 51°24.938 2°31.729 17.4441 4.510687 34.662569 -0.304087
2008-09-05 13:03:49 51°24.934 2°31.743 17.4452 4.510894 34.662988 -0.304087
2008-09-05 13:04:49 51°24.93 2°31.754 17.4446 4.510998 34.663881 -0.304087
2008-09-05 13:05:49 51°24.925 2°31.767 17.4417 4.510894 34.662988 -0.304087
2008-09-05 13:06:49 51°24.92 2°31.779 17.4417 4.510687 34.663254 -0.304087
2008-09-05 13:07:49 51°24.913 2°31.795 17.441 4.510687 34.663254 -0.338911
2008-09-05 13:08:49 51°24.9 2°31.81 17.443 4.510791 34.663463 -0.269263
2008-09-05 13:09:49 51°24.896 2°31.878 17.4408 4.510791 34.663463 -0.269263
2008-09-05 13:10:48 51°24.952 2°31.891 17.4412 4.510583 34.661676 -0.095143
2008-09-05 13:11:49 51°24.962 2°31.786 17.4411 4.510479 34.662151 -0.060319
2008-09-05 13:12:49 51°24.934 2°31.731 17.4397 4.510583 34.663045 -0.060319
2008-09-05 13:13:49 51°24.902 2°31.692 17.436 4.510272 34.663102 -0.095143
2008-09-05 13:14:49 51°24.862 2°31.649 17.4357 4.510064 34.664737 -0.129967
2008-09-05 13:15:49 51°24.83 2°31.61 17.4342 4.510168 34.664262 -0.164791
2008-09-05 13:16:51 51°24.843 2°31.594 17.436 4.510272 34.665156 -0.095143
2008-09-05 13:17:51 51°24.858 2°31.588 17.4355 4.510272 34.66584 -0.060319
2008-09-05 13:18:49 51°24.87 2°31.588 17.4356 4.510168 34.666316 -0.129967
2008-09-05 13:19:49 51°24.875 2°31.587 17.4317 4.50996 34.665213 -0.129967
2008-09-05 13:20:49 51°24.873 2°31.574 17.4319 4.50996 34.665898 -0.164791
2008-09-05 13:21:49 51°24.869 2°31.559 17.4302 4.50996 34.666583 -0.234439
2008-09-05 13:22:48 51°24.864 2°31.545 17.4298 4.509649 34.664585 -0.234439
2008-09-05 13:23:49 51°24.86 2°31.536 17.4314 4.509545 34.663691 -0.304087
2008-09-05 13:24:48 51°24.86 2°31.535 17.4285 4.509441 34.664167 -0.304087
2008-09-05 13:25:49 51°24.864 2°31.54 17.4257 4.509441 34.664167 -0.304087
2008-09-05 13:26:49 51°24.868 2°31.552 17.4307 4.509545 34.665061 -0.304087
2008-09-05 13:27:49 51°24.872 2°31.565 17.4289 4.50996 34.666583 -0.304087
2008-09-05 13:28:49 51°24.872 2°31.57 17.4311 4.50996 34.667267 -0.304087
2008-09-05 13:29:49 51°24.872 2°31.569 17.4312 4.510168 34.667686 -0.304087
2008-09-05 13:30:49 51°24.872 2°31.562 17.4287 4.510064 34.667477 -0.304087
2008-09-05 13:31:49 51°24.867 2°31.554 17.4321 4.510064 34.666792 -0.304087
2008-09-05 13:32:49 51°24.863 2°31.545 17.438 4.510375 34.667419 -0.269263
2008-09-05 13:33:49 51°24.86 2°31.539 17.4367 4.510583 34.667153 -0.304087
2008-09-05 13:34:48 51°24.859 2°31.538 17.4314 4.510375 34.667419 -0.304087
2008-09-05 13:35:49 51°24.861 2°31.541 17.4331 4.510272 34.667895 -0.304087
2008-09-05 13:36:49 51°24.866 2°31.545 17.4314 4.510376 34.669474 -0.338911
2008-09-05 13:37:49 51°24.87 2°31.555 17.4333 4.510272 34.667895 -0.338911
2008-09-05 13:38:49 51°24.874 2°31.569 17.4308 4.510583 34.669207 -0.373735
2008-09-05 13:39:49 51°24.873 2°31.579 17.4388 4.510583 34.669207 -0.373735
2008-09-05 13:40:49 51°24.874 2°31.578 17.4384 4.511102 34.670252 -0.373735
2008-09-05 13:41:49 51°24.872 2°31.568 17.4391 4.510895 34.669834 -0.338911
2008-09-05 13:42:49 51°24.868 2°31.557 17.4361 4.511102 34.668883 -0.338911
2008-09-05 13:43:49 51°24.867 2°31.551 17.4373 4.511102 34.669568 -0.304087
2008-09-05 13:44:49 51°24.867 2°31.55 17.4373 4.51131 34.669986 -0.338911
2008-09-05 13:45:49 51°24.867 2°31.551 17.436 4.510998 34.670043 -0.338911
2008-09-05 13:46:49 51°24.868 2°31.554 17.4299 4.510791 34.669625 -0.304087
2008-09-05 13:47:49 51°24.869 2°31.557 17.4324 4.510376 34.670158 -0.338911
2008-09-05 13:48:49 51°24.871 2°31.56 17.4314 4.510687 34.670101 -0.338911
2008-09-05 13:49:49 51°24.87 2°31.564 17.4322 4.510376 34.670158 -0.338911
2008-09-05 13:50:49 51°24.872 2°31.566 17.4388 4.510687 34.669416 -0.373735
2008-09-05 13:51:49 51°24.872 2°31.564 17.436 4.510895 34.669834 -0.373735
2008-09-05 13:52:49 51°24.87 2°31.56 17.4388 4.510895 34.669834 -0.373735
2008-09-05 13:53:49 51°24.868 2°31.555 17.4344 4.510687 34.667362 -0.373735
2008-09-05 13:54:49 51°24.863 2°31.558 17.4365 4.510791 34.668256 -0.373735
2008-09-05 13:55:48 51°24.854 2°31.569 17.4379 4.510998 34.668674 -0.338911
2008-09-05 13:56:49 51°24.852 2°31.576 17.436 4.510583 34.668522 -0.304087
2008-09-05 13:57:49 51°24.844 2°31.581 17.4362 4.510375 34.666734 -0.304087
2008-09-05 13:58:49 51°24.829 2°31.591 17.4296 4.510272 34.666525 -0.304087
2008-09-05 13:59:49 51°24.829 2°31.593 17.4323 4.510168 34.668371 -0.304087
2008-09-05 14:00:48 51°24.821 2°31.592 17.4324 4.510272 34.66721 -0.304087
2008-09-05 14:01:49 51°24.808 2°31.59 17.4301 4.510583 34.670577 -0.269263
2008-09-05 14:02:49 51°24.782 2°31.641 17.4264 4.508922 34.659012 -0.234439
2008-09-05 14:03:49 51°24.828 2°31.721 17.4253 4.509649 34.66664 -0.199615
2008-09-05 14:04:49 51°24.858 2°31.737 17.4265 4.509233 34.663064 -0.164791
2008-09-05 14:05:51 51°24.853 2°31.733 17.4255 4.509649 34.66527 -0.095143
2008-09-05 14:06:49 51°24.859 2°31.734 17.4271 4.50913 34.661485 -0.060319
2008-09-05 14:07:49 51°24.872 2°31.735 17.4276 4.510272 34.672004 -0.164791
2008-09-05 14:08:49 51°24.888 2°31.737 17.4266 4.510272 34.672004 -0.199615
2008-09-05 14:09:49 51°24.901 2°31.738 17.4294 4.510479 34.670368 -0.234439
2008-09-05 14:10:49 51°24.904 2°31.719 17.4299 4.510687 34.669416 -0.234439
2008-09-05 14:11:49 51°24.908 2°31.699 17.4325 4.510687 34.670786 -0.269263
2008-09-05 14:12:49 51°24.914 2°31.704 17.4265 4.510687 34.672156 -0.234439
2008-09-05 14:13:49 51°24.914 2°31.72 17.4329 4.510687 34.671471 -0.269263
2008-09-05 14:14:49 51°24.917 2°31.725 17.4289 4.510895 34.673259 -0.304087
2008-09-05 14:15:49 51°24.915 2°31.729 17.4356 4.510791 34.673734 -0.269263
2008-09-05 14:16:49 51°24.918 2°31.728 17.4311 4.510895 34.673943 -0.304087
2008-09-05 14:17:49 51°24.914 2°31.729 17.4289 4.510687 34.67421 -0.269263
2008-09-05 14:18:48 51°24.916 2°31.729 17.4314 4.510687 34.67284 -0.304087
2008-09-05 14:19:49 51°24.917 2°31.727 17.4291 4.510583 34.673316 -0.304087
2008-09-05 14:20:49 51°24.915 2°31.727 17.4301 4.510791 34.672365 -0.304087
2008-09-05 14:21:49 51°24.916 2°31.726 17.4311 4.510687 34.673525 -0.304087
2008-09-05 14:22:48 51°24.915 2°31.726 17.431 4.510791 34.672365 -0.304087
2008-09-05 14:23:49 51°24.916 2°31.725 17.429 4.510791 34.67305 -0.304087
2008-09-05 14:24:48 51°24.915 2°31.728 17.4354 4.510687 34.673525 -0.304087
2008-09-05 14:25:49 51°24.917 2°31.729 17.4303 4.510895 34.673259 -0.304087
2008-09-05 14:26:48 51°24.915 2°31.73 17.431 4.510791 34.673734 -0.304087
2008-09-05 14:27:49 51°24.916 2°31.73 17.4292 4.510687 34.674896 -0.304087
2008-09-05 14:28:48 51°24.915 2°31.735 17.433 4.510687 34.674896 -0.338911
2008-09-05 14:29:49 51°24.918 2°31.739 17.4305 4.510895 34.675314 -0.304087
2008-09-05 14:30:49 51°24.916 2°31.74 17.4266 4.510895 34.675314 -0.338911
2008-09-05 14:31:49 51°24.917 2°31.741 17.4296 4.510791 34.67579 -0.338911
2008-09-05 14:32:49 51°24.917 2°31.742 17.4278 4.510791 34.67579 -0.338911
2008-09-05 14:33:49 51°24.916 2°31.742 17.4259 4.510479 34.676533 -0.338911
2008-09-05 14:34:48 51°24.913 2°31.745 17.424 4.510376 34.675639 -0.304087
2008-09-05 14:35:49 51°24.908 2°31.747 17.4254 4.510064 34.672956 -0.338911
2008-09-05 14:36:48 51°24.907 2°31.748 17.4251 4.509649 34.67212 -0.304087
2008-09-05 14:37:49 51°24.908 2°31.75 17.4273 4.509753 34.671644 -0.338911
2008-09-05 14:38:48 51°24.906 2°31.75 17.4216 4.509753 34.671644 -0.304087
2008-09-05 14:39:49 51°24.909 2°31.748 17.4218 4.509649 34.67075 -0.338911
2008-09-05 14:40:49 51°24.908 2°31.748 17.4243 4.509753 34.670959 -0.338911
2008-09-05 14:41:49 51°24.909 2°31.75 17.4247 4.509649 34.67075 -0.338911
2008-09-05 14:42:49 51°24.906 2°31.75 17.4197 4.509753 34.671644 -0.304087
2008-09-05 14:43:49 51°24.899 2°31.754 17.4187 4.509545 34.673282 -0.304087
2008-09-05 14:44:49 51°24.889 2°31.756 17.4226 4.509753 34.673014 -0.304087
2008-09-05 14:45:48 51°24.883 2°31.758 17.4189 4.509545 34.672596 -0.304087
2008-09-05 14:46:49 51°24.892 2°31.761 17.4218 4.509753 34.673014 -0.304087
2008-09-05 14:47:49 51°24.915 2°31.766 17.4189 4.510064 34.673641 -0.304087
2008-09-05 14:48:49 51°24.943 2°31.779 17.4219 4.509753 34.673014 -0.304087
2008-09-05 14:49:49 51°24.97 2°31.791 17.4206 4.509857 34.671853 -0.338911
2008-09-05 14:50:49 51°24.972 2°31.767 17.4231 4.50996 34.673432 -0.338911
2008-09-05 14:51:49 51°24.937 2°31.79 17.4155 4.509545 34.673282 -0.269263
2008-09-05 14:52:49 51°24.848 2°31.916 17.4176 4.509234 34.671284 -0.269263
2008-09-05 14:53:49 51°24.699 2°32.091 17.4216 4.509649 34.672805 -0.129967
2008-09-05 14:54:49 51°24.549 2°32.287 17.4309 4.509649 34.66938 -0.129967
2008-09-05 14:55:48 51°24.408 2°32.501 17.4485 4.50996 34.659736 -0.095143
2008-09-05 14:56:49 51°24.26 2°32.724 17.4589 4.510168 34.64989 0.009329
2008-09-05 14:57:49 51°24.112 2°32.938 17.4686 4.510583 34.644572 0.044153
2008-09-05 14:58:49 51°23.967 2°33.15 17.4662 4.510583 34.639103 0.18345
2008-09-05 14:59:48 51°23.828 2°33.363 17.4542 4.510375 34.639367 0.322746
2008-09-05 15:00:49 51°23.682 2°33.585 17.6455 4.508299 34.634491 0.566514
2008-09-05 15:01:49 51°23.538 2°33.799 17.4471 4.50643 34.622511 0.740634
2008-09-05 15:02:49 51°23.377 2°33.959 17.4522 4.505911 34.613943 0.914755
2008-09-05 15:03:49 51°23.203 2°34.068 17.462 4.505703 34.60874 1.088875
2008-09-05 15:04:49 51°23.028 2°34.179 17.464 4.505807 34.603486 1.262995
2008-09-05 15:05:49 51°22.855 2°34.293 17.4839 4.505911 34.598916 1.47194
2008-09-05 15:06:48 51°22.683 2°34.406 17.5074 4.507571 34.594774 1.924652
2008-09-05 15:07:49 51°22.504 2°34.521 17.4958 4.509025 34.595672 2.098773
2008-09-05 15:08:48 51°22.331 2°34.632 17.4736 4.506637 34.588787 1.855004
2008-09-05 15:09:49 51°22.152 2°34.753 17.4707 4.504145 34.579642 1.889828
2008-09-05 15:10:49 51°21.978 2°34.882 17.4677 4.502692 34.571236 1.82018
2008-09-05 15:11:49 51°21.813 2°35.044 17.4586 4.501342 34.563039 1.889828
2008-09-05 15:12:49 51°21.657 2°35.235 17.4556 4.49937 34.552212 1.959476
2008-09-05 15:13:49 51°21.511 2°35.451 17.4501 4.497293 34.53708 2.168421
2008-09-05 15:14:49 51°21.375 2°35.692 17.4431 4.494594 34.519315 2.238069
2008-09-05 15:15:49 51°21.243 2°35.938 17.4534 4.493037 34.507964 2.412189
2008-09-05 15:16:49 51°21.106 2°36.179 17.4906 4.494075 34.501227 2.690782
2008-09-05 15:17:49 51°20.972 2°36.428 17.534 4.498539 34.505571 3.004198
2008-09-05 15:18:49 51°20.84 2°36.681 17.5397 4.50321 34.514418 3.317614
2008-09-05 15:19:48 51°20.708 2°36.924 17.5146 4.502587 34.515867 3.247966
2008-09-05 15:20:48 51°20.575 2°37.172 17.4953 4.498746 34.504634 3.247966
2008-09-05 15:21:49 51°20.444 2°37.428 17.4776 4.49532 34.490841 3.213142
2008-09-05 15:22:49 51°20.32 2°37.688 17.4728 4.49314 34.482307 3.213142
2008-09-05 15:23:49 51°20.194 2°37.944 17.4742 4.492933 34.481882 3.317614
2008-09-05 15:24:49 51°20.069 2°38.202 17.4737 4.492413 34.476741 3.387263
2008-09-05 15:25:49 51°19.947 2°38.462 17.4771 4.491687 34.471174 3.422087
2008-09-05 15:26:49 51°19.826 2°38.724 17.4771 4.491791 34.471387 3.456911
2008-09-05 15:27:48 51°19.705 2°38.977 17.4747 4.491998 34.471811 3.596207
2008-09-05 15:28:49 51°19.581 2°39.241 17.4705 4.491687 34.471854 3.805151
2008-09-05 15:29:49 51°19.457 2°39.492 17.4629 4.491272 34.472366 4.014096
2008-09-05 15:30:48 51°19.337 2°39.742 17.4564 4.490649 34.471772 4.153392
2008-09-05 15:31:49 51°19.219 2°40.005 17.45 4.489091 34.465186 4.362336
2008-09-05 15:32:49 51°19.1 2°40.264 17.4442 4.487327 34.456813 4.57128
2008-09-05 15:33:49 51°18.98 2°40.523 17.4482 4.487742 34.461744 4.431984
2008-09-05 15:34:49 51°18.863 2°40.792 17.4487 4.489092 34.472671 4.327512
2008-09-05 15:35:49 51°18.735 2°41.049 17.4493 4.489922 34.477771 4.257864
2008-09-05 15:36:49 51°18.607 2°41.306 17.4492 4.489715 34.476666 4.22304
2008-09-05 15:37:49 51°18.48 2°41.562 17.447 4.489195 34.470841 4.22304
2008-09-05 15:38:49 51°18.357 2°41.823 17.4455 4.488365 34.46438 4.362336
2008-09-05 15:39:49 51°18.236 2°42.085 17.4417 4.487534 34.460639 4.327512
2008-09-05 15:40:49 51°18.116 2°42.344 17.4382 4.487638 34.464934 4.22304
2008-09-05 15:41:49 51°17.996 2°42.6 17.427 4.488365 34.472546 4.327512
2008-09-05 15:42:48 51°17.871 2°42.842 17.4039 4.487119 34.473404 4.536456
2008-09-05 15:43:49 51°17.744 2°43.094 17.3801 4.484109 34.469292 4.640929
2008-09-05 15:44:48 51°17.615 2°43.335 17.3728 4.481721 34.466455 4.536456
2008-09-05 15:45:49 51°17.483 2°43.587 17.3728 4.481929 34.468925 4.501632
2008-09-05 15:46:49 51°17.355 2°43.837 17.3811 4.48276 34.472668 4.466808
2008-09-05 15:47:48 51°17.23 2°44.08 17.3911 4.483901 34.476366 4.327512
2008-09-05 15:48:49 51°17.098 2°44.326 17.4017 4.485251 34.480487 4.04892
2008-09-05 15:49:49 51°16.969 2°44.567 17.4005 4.485874 34.480396 3.909623
2008-09-05 15:50:49 51°16.844 2°44.811 17.3896 4.484939 34.475079 3.944447
2008-09-05 15:51:49 51°16.716 2°45.05 17.3748 4.483071 34.466488 4.04892
2008-09-05 15:52:49 51°16.592 2°45.292 17.4867 4.479749 34.457648 3.979271
2008-09-05 15:53:49 51°16.469 2°45.536 17.498 4.46791 34.131673 4.04892
2008-09-05 15:54:48 51°16.366 2°45.801 17.4134 4.483485 34.393232 4.04892
2008-09-05 15:55:49 51°16.261 2°46.079 17.3786 4.48089 34.429338 4.083744
2008-09-05 15:56:48 51°16.189 2°46.38 17.3661 4.478088 34.429035 4.118568
2008-09-05 15:57:49 51°16.119 2°46.701 17.3577 4.47705 34.42963 4.153392
2008-09-05 15:58:49 51°16.051 2°47.021 17.351 4.476219 34.429289 4.014096
2008-09-05 15:59:48 51°15.985 2°47.337 17.3423 4.475596 34.427331 3.909623
2008-09-05 16:00:48 51°15.924 2°47.665 17.3517 4.475077 34.426266 3.874799
2008-09-05 16:01:49 51°15.859 2°47.997 17.3457 4.4757 34.429588 3.909623
2008-09-05 16:02:49 51°15.795 2°48.321 17.332 4.474247 34.423881 3.770327
2008-09-05 16:03:48 51°15.731 2°48.637 17.2901 4.470302 34.411015 3.839975
2008-09-05 16:04:48 51°15.664 2°48.952 17.2927 4.463347 34.376268 4.327512
2008-09-05 16:05:49 51°15.596 2°49.273 17.2743 4.460025 34.354434 3.700679
2008-09-05 16:06:48 51°15.532 2°49.588 17.485 0.299527 1.848918 -1.174688
2008-09-05 16:07:49 51°15.466 2°49.915 17.5727 0.229732 1.397052 -1.174688
2008-09-05 16:08:49 51°15.407 2°50.241 17.6434 0.188147 1.132111 -1.174688
2008-09-05 16:09:49 51°15.361 2°50.574 17.7098 0.23107 1.405551 -1.174688
2008-09-05 16:10:49 51°15.312 2°50.904 17.7994 0.223041 1.354065 -1.209513
2008-09-05 16:11:49 51°15.231 2°51.21 17.86 0.235188 1.431865 -1.174688
2008-09-05 16:12:49 51°15.139 2°51.506 17.9423 0.243423 1.484747 -1.174688
2008-09-05 16:13:48 51°15.054 2°51.804 18.0137 0.210895 1.276301 -1.209513
2008-09-05 16:14:49 51°14.968 2°52.114 18.0873 0.230865 1.403877 -1.174688
2008-09-05 16:15:48 51°14.894 2°52.417 18.1633 0.20616 1.24598 -1.174688
2008-09-05 16:16:49 51°14.831 2°52.738 18.2337 0.244246 1.489614 -1.209513
2008-09-05 16:17:48 51°14.763 2°53.04 18.2899 0.194735 1.173242 -1.209513
2008-09-05 16:18:49 51°14.701 2°53.359 18.3437 0.188971 1.136661 -1.209513
2008-09-05 16:19:48 51°14.642 2°53.668 18.4053 0.174046 1.04244 -1.174688
2008-09-05 16:20:48 51°14.583 2°53.989 18.4652 0.203896 1.231101 -1.209513
2008-09-05 16:21:49 51°14.518 2°54.313 18.5309 0.164474 0.982167 -1.174688
2008-09-05 16:22:48 51°14.454 2°54.625 18.605 0.183412 1.101202 -1.174688
2008-09-05 16:23:49 51°14.383 2°54.943 18.6736 0.218203 1.321931 -1.174688
2008-09-05 16:24:48 51°14.279 2°55.209 18.7364 0.168591 1.007753 -1.139864